createdAt,value
2022-11-28T00:02:50.661Z,6.09
2022-11-28T00:07:52.123Z,6.14
2022-11-28T00:12:53.620Z,6.06
2022-11-28T00:17:55.014Z,6.00
2022-11-28T00:22:56.480Z,5.88
2022-11-28T00:27:57.908Z,5.71
2022-11-28T00:32:59.376Z,5.67
2022-11-28T00:38:00.840Z,5.60
2022-11-28T00:43:02.314Z,5.62
2022-11-28T00:48:03.966Z,5.75
2022-11-28T00:53:05.372Z,5.73
2022-11-28T00:58:06.839Z,5.81
2022-11-28T01:03:08.259Z,5.84
2022-11-28T01:08:10.513Z,5.81
2022-11-28T01:13:12.092Z,5.85
2022-11-28T01:18:13.574Z,5.91
2022-11-28T01:23:16.733Z,5.96
2022-11-28T01:28:18.183Z,6.01
2022-11-28T01:33:19.612Z,5.86
2022-11-28T01:38:21.103Z,5.77
2022-11-28T01:43:23.942Z,5.80
2022-11-28T01:48:43.710Z,5.68
2022-11-28T01:53:47.279Z,5.58
2022-11-28T01:58:56.439Z,5.58
2022-11-28T02:03:58.761Z,5.45
2022-11-28T02:09:00.232Z,5.18
2022-11-28T02:14:30.930Z,5.25
2022-11-28T02:19:53.344Z,5.31
2022-11-28T02:25:09.516Z,5.20
2022-11-28T02:30:48.382Z,5.06
2022-11-28T02:35:59.248Z,4.98
2022-11-28T02:41:06.535Z,4.98
2022-11-28T02:46:25.221Z,5.06
2022-11-28T02:51:48.086Z,5.08
2022-11-28T02:56:54.291Z,5.20
2022-11-28T03:01:55.897Z,5.28
2022-11-28T03:07:35.987Z,5.38
2022-11-28T03:12:58.464Z,5.38
2022-11-28T03:18:06.124Z,5.29
2022-11-28T03:23:16.292Z,5.23
2022-11-28T03:28:38.186Z,5.25
2022-11-28T03:33:51.766Z,5.04
2022-11-28T03:39:06.417Z,5.19
2022-11-28T03:44:15.134Z,5.26
2022-11-28T03:49:22.259Z,5.31
2022-11-28T03:54:40.262Z,5.27
2022-11-28T03:59:46.597Z,5.29
2022-11-28T04:04:53.404Z,5.33
2022-11-28T04:10:16.585Z,5.18
2022-11-28T04:15:26.902Z,5.30
2022-11-28T04:20:51.663Z,5.12
2022-11-28T04:26:13.517Z,5.23
2022-11-28T04:31:17.928Z,5.38
2022-11-28T04:36:22.785Z,5.41
2022-11-28T04:41:34.895Z,5.35
2022-11-28T04:46:44.760Z,5.33
2022-11-28T04:51:50.462Z,5.35
2022-11-28T04:57:03.879Z,5.45
2022-11-28T05:02:06.380Z,5.40
2022-11-28T05:07:08.406Z,5.32
2022-11-28T05:12:09.817Z,5.47
2022-11-28T05:17:12.903Z,5.49
2022-11-28T05:22:14.488Z,5.64
2022-11-28T05:27:16.459Z,5.57
2022-11-28T05:32:17.912Z,5.55
2022-11-28T05:37:20.440Z,5.59
2022-11-28T05:42:21.908Z,5.59
2022-11-28T05:47:23.365Z,5.60
2022-11-28T05:52:24.911Z,5.49
2022-11-28T05:57:26.402Z,5.18
2022-11-28T06:02:27.932Z,5.09
2022-11-28T06:07:29.459Z,5.17
2022-11-28T06:12:30.974Z,5.16
2022-11-28T06:17:32.409Z,5.17
2022-11-28T06:22:33.931Z,5.25
2022-11-28T06:27:35.408Z,5.31
2022-11-28T06:32:36.849Z,5.27
2022-11-28T06:37:38.333Z,5.40
2022-11-28T06:42:39.760Z,5.39
2022-11-28T06:47:41.216Z,5.41
2022-11-28T06:52:42.596Z,5.30
2022-11-28T06:57:43.987Z,5.22
2022-11-28T07:02:45.493Z,5.13
2022-11-28T07:07:54.265Z,5.03
2022-11-28T07:13:05.138Z,5.10
2022-11-28T07:18:07.029Z,5.00
2022-11-28T07:23:08.421Z,5.10
2022-11-28T07:28:09.998Z,5.04
2022-11-28T07:33:11.490Z,5.10
2022-11-28T07:38:12.945Z,5.14
2022-11-28T07:43:14.421Z,5.11
2022-11-28T07:48:15.906Z,5.11
2022-11-28T07:53:17.341Z,5.18
2022-11-28T07:58:18.723Z,5.18
2022-11-28T08:03:20.175Z,5.22
2022-11-28T08:08:23.413Z,5.22
2022-11-28T08:13:25.011Z,5.23
2022-11-28T08:18:26.442Z,5.19
2022-11-28T08:23:27.902Z,5.24
2022-11-28T08:28:29.719Z,5.32
2022-11-28T08:33:31.310Z,5.37
2022-11-28T08:38:32.844Z,5.53
2022-11-28T08:43:35.108Z,5.74
2022-11-28T08:48:37.811Z,5.86
2022-11-28T08:53:39.275Z,5.90
2022-11-28T08:58:40.818Z,5.94
2022-11-28T09:03:42.301Z,5.96
2022-11-28T09:08:44.223Z,6.00
2022-11-28T09:13:46.437Z,6.15
2022-11-28T09:18:48.006Z,6.17
2022-11-28T09:23:49.483Z,6.21
2022-11-28T09:28:51.479Z,6.46
2022-11-28T09:33:53.812Z,6.56
2022-11-28T09:38:55.292Z,6.55
2022-11-28T09:44:02.996Z,6.65
2022-11-28T09:49:17.886Z,6.71
2022-11-28T09:54:22.344Z,6.82
2022-11-28T09:59:29.664Z,6.75
2022-11-28T10:04:44.026Z,6.80
2022-11-28T10:10:09.669Z,6.91
2022-11-28T10:15:25.449Z,6.99
2022-11-28T10:20:30.751Z,7.08
2022-11-28T10:25:40.530Z,7.14
2022-11-28T10:30:48.200Z,7.20
2022-11-28T10:35:58.483Z,7.24
2022-11-28T10:41:02.811Z,7.36
2022-11-28T10:46:17.911Z,7.45
2022-11-28T10:51:41.102Z,7.54
2022-11-28T10:56:51.621Z,7.64
2022-11-28T11:01:53.480Z,7.58
2022-11-28T11:07:10.123Z,7.67
2022-11-28T11:12:30.142Z,7.71
2022-11-28T11:17:36.729Z,7.76
2022-11-28T11:22:38.300Z,7.83
2022-11-28T11:27:51.888Z,7.86
2022-11-28T11:32:55.534Z,7.84
2022-11-28T11:38:18.233Z,7.86
2022-11-28T11:43:33.732Z,7.76
2022-11-28T11:48:43.681Z,7.87
2022-11-28T11:53:45.211Z,8.08
2022-11-28T11:58:51.835Z,8.33
2022-11-28T12:03:58.264Z,8.52
2022-11-28T12:09:23.168Z,8.71
2022-11-28T12:14:27.556Z,8.78
2022-11-28T12:20:01.416Z,8.80
2022-11-28T12:25:13.806Z,8.75
2022-11-28T12:30:24.415Z,8.77
2022-11-28T12:35:38.715Z,8.91
2022-11-28T12:40:56.546Z,8.99
2022-11-28T12:46:30.321Z,9.00
2022-11-28T12:52:06.861Z,9.08
2022-11-28T12:57:19.844Z,9.09
2022-11-28T13:02:45.688Z,9.05
2022-11-28T13:08:11.834Z,9.10
2022-11-28T13:13:16.194Z,9.10
2022-11-28T13:18:38.369Z,9.05
2022-11-28T13:24:06.660Z,9.02
2022-11-28T13:29:40.867Z,8.99
2022-11-28T13:34:43.049Z,8.96
2022-11-28T13:39:44.415Z,9.10
2022-11-28T13:44:52.939Z,9.16
2022-11-28T13:50:22.423Z,9.16
2022-11-28T13:55:38.796Z,9.14
2022-11-28T14:00:40.564Z,9.18
2022-11-28T14:05:42.155Z,9.16
2022-11-28T14:11:13.835Z,9.16
2022-11-28T14:16:32.537Z,9.11
2022-11-28T14:21:52.756Z,9.11
2022-11-28T14:26:59.769Z,9.08
2022-11-28T14:32:28.314Z,9.04
2022-11-28T14:37:29.178Z,9.01
2022-11-28T14:42:58.818Z,8.86
2022-11-28T14:48:30.866Z,8.85
2022-11-28T14:53:37.699Z,8.74
2022-11-28T14:58:39.716Z,8.61
2022-11-28T15:03:48.840Z,8.61
2022-11-28T15:09:05.831Z,8.60
2022-11-28T15:14:22.209Z,8.61
2022-11-28T15:19:34.530Z,8.56
2022-11-28T15:24:38.028Z,8.54
2022-11-28T15:29:40.566Z,8.54
2022-11-28T15:34:43.443Z,8.52
2022-11-28T15:39:49.406Z,8.48
2022-11-28T15:44:56.818Z,8.41
2022-11-28T15:50:00.860Z,8.30
2022-11-28T15:55:02.332Z,8.29
2022-11-28T16:00:04.266Z,8.25
2022-11-28T16:05:18.907Z,8.25
2022-11-28T16:10:22.900Z,8.14
2022-11-28T16:15:26.167Z,8.06
2022-11-28T16:20:33.790Z,8.01
2022-11-28T16:25:35.501Z,7.97
2022-11-28T16:30:42.131Z,7.96
2022-11-28T16:35:43.556Z,7.91
2022-11-28T16:40:45.163Z,7.87
2022-11-28T16:45:46.678Z,7.85
2022-11-28T16:51:11.469Z,7.85
2022-11-28T16:56:36.270Z,7.81
2022-11-28T17:01:38.857Z,7.87
2022-11-28T17:06:40.338Z,7.93
2022-11-28T17:11:46.444Z,7.92
2022-11-28T17:16:48.019Z,7.89
2022-11-28T17:21:56.475Z,7.88
2022-11-28T17:26:58.029Z,7.90
2022-11-28T17:32:00.115Z,7.89
2022-11-28T17:37:02.879Z,7.91
2022-11-28T17:42:05.369Z,7.94
2022-11-28T17:47:06.842Z,7.95
2022-11-28T17:52:09.366Z,7.83
2022-11-28T17:57:11.196Z,7.78
2022-11-28T18:02:13.082Z,7.72
2022-11-28T18:07:15.580Z,7.73
2022-11-28T18:12:17.084Z,7.74
2022-11-28T18:17:18.554Z,7.71
2022-11-28T18:22:20.336Z,7.79
2022-11-28T18:27:22.453Z,7.80
2022-11-28T18:32:23.854Z,7.74
2022-11-28T18:37:25.445Z,7.72
2022-11-28T18:42:26.966Z,7.72
2022-11-28T18:47:28.461Z,7.70
2022-11-28T18:52:30.000Z,7.67
2022-11-28T18:57:31.716Z,7.67
2022-11-28T19:02:33.655Z,7.66
2022-11-28T19:07:35.275Z,7.61
2022-11-28T19:12:38.596Z,7.60
2022-11-28T19:17:40.756Z,7.45
2022-11-28T19:22:42.590Z,7.37
2022-11-28T19:27:44.177Z,7.34
2022-11-28T19:32:45.619Z,7.40
2022-11-28T19:37:47.159Z,7.48
2022-11-28T19:42:48.695Z,7.48
2022-11-28T19:47:50.726Z,7.49
2022-11-28T19:52:52.256Z,7.48
2022-11-28T19:57:53.799Z,7.49
2022-11-28T20:02:55.635Z,7.48
2022-11-28T20:07:58.772Z,7.51
2022-11-28T20:13:00.452Z,7.54
2022-11-28T20:18:03.163Z,7.56
2022-11-28T20:23:04.626Z,7.55
2022-11-28T20:28:06.907Z,7.51
2022-11-28T20:33:08.443Z,7.55
2022-11-28T20:38:09.862Z,7.57
2022-11-28T20:43:11.280Z,7.58
2022-11-28T20:48:12.705Z,7.63
2022-11-28T20:53:14.113Z,7.67
2022-11-28T20:58:15.629Z,7.70
2022-11-28T21:03:17.132Z,7.77
2022-11-28T21:08:18.674Z,7.80
2022-11-28T21:13:20.137Z,7.90
2022-11-28T21:18:21.555Z,7.91
2022-11-28T21:23:23.014Z,7.99
2022-11-28T21:28:24.415Z,8.06
2022-11-28T21:33:25.888Z,8.08
2022-11-28T21:38:27.371Z,8.05
2022-11-28T21:43:29.170Z,8.02
2022-11-28T21:48:31.863Z,8.04
2022-11-28T21:53:34.161Z,8.07
2022-11-28T21:58:35.695Z,8.07
2022-11-28T22:03:38.425Z,8.06
2022-11-28T22:08:40.404Z,8.05
2022-11-28T22:13:42.979Z,8.01
2022-11-28T22:18:44.956Z,7.95
2022-11-28T22:23:46.626Z,7.94
2022-11-28T22:28:53.611Z,7.93
2022-11-28T22:33:57.575Z,7.93
2022-11-28T22:38:59.137Z,7.83
2022-11-28T22:44:02.273Z,7.80
2022-11-28T22:49:05.211Z,7.80
2022-11-28T22:54:06.986Z,7.78
2022-11-28T22:59:13.787Z,7.82
2022-11-28T23:04:15.896Z,7.89
2022-11-28T23:09:17.386Z,7.91
2022-11-28T23:14:19.439Z,7.92
2022-11-28T23:19:22.444Z,7.96
2022-11-28T23:24:24.147Z,7.99
2022-11-28T23:29:26.742Z,8.02
2022-11-28T23:34:28.320Z,7.93
2022-11-28T23:39:29.743Z,7.93
2022-11-28T23:44:38.323Z,7.79
2022-11-28T23:49:39.800Z,7.84
2022-11-28T23:54:41.657Z,7.90
2022-11-28T23:59:43.337Z,7.90
